Marten Brobbey

Chefscout - Heracles
6 Mai 2027
Donnerstag
Verarbeitung

Persönlichkeit

Anpassungsfähigkeit (5) Ehrgeiz (8) Kontroverse (13) Loyalität (2) Druck (12) Professionalität (2) Fairness (11) Temperament (3)

Profil

Trainerstil Demokratisch
Lizenz Kontinentale B
Entschlossenheit 7
Menschenführung 6
Motivation 5
Disziplin 4
Arbeitszufriedenheit
50%
Ermüdung
0%
Rolle Chefscout
Gehalt 65.3K p/W
Vertrag 14.03.2028

Leistung

Verhalten Normal
Trainingseffektivität
17%
Spielerentwicklung
60%
Verletzungsprävention
25%
Taktische Umsetzung
45%

Letzte Ereignisse

Spieler begutachtet jetzt
Nahm an einer Scouting-Besprechung teil jetzt
Empfahl ein Transferziel jetzt
Empfahl ein Transferziel jetzt
Empfahl ein Transferziel jetzt
Empfahl ein Transferziel 7T her
Empfahl ein Transferziel 7T her
Empfahl ein Transferziel 7T her

Aktuell beobachtet

132
Spieler Verein Status Fähigkeit Vertrauen Beobachtet Zuletzt beobachtet Letzte Stimme
Cheveyo Tsawa Club Brugge Aktiv 121 / 135 40% 2 04.05.2027 -
José Pachuca Puebla Aktiv 115 / 94 40% 1 03.05.2027 -
Latrell Aken Groningen Aktiv 108 / 106 40% 1 03.05.2027 -
Leo Castledine Middlesbrough Aktiv 121 / 135 40% 4 18.04.2027 -
Pape Diong Westerlo Aktiv 118 / 128 40% 1 18.04.2027 -
Caleb Yirenkyi Coventry City Aktiv 145 / 134 40% 1 17.04.2027 -
Oscar Schwartau Norwich City Aktiv 117 / 133 40% 1 17.04.2027 -
Thulani Erasmus Platinum Stars Aktiv 88 / 93 40% 4 15.04.2027 -
Shea Lacey Wolverhampton Aktiv 113 / 130 40% 2 15.04.2027 -
Jan Bürger Gillingham Aktiv 101 / 128 40% 2 14.04.2027 -
Jesús Rodríguez Como Aktiv 144 / 137 40% 1 14.04.2027 -
Rodrigo Mora AS Roma Aktiv 132 / 131 40% 1 12.04.2027 -
Kevin Vazquez Cruz Azul Aktiv 136 / 139 40% 1 12.04.2027 -
David Mella Deportivo La Coruña Aktiv 136 / 126 40% 1 11.04.2027 -
Lynden Edhart Cambuur Aktiv 99 / 109 40% 2 09.04.2027 -
Oskar Pietuszewski Porto Aktiv 128 / 138 40% 1 09.04.2027 -
Jayden Addai Como Aktiv 144 / 133 40% 1 07.04.2027 -
Eliás Montiel Pachuca Aktiv 122 / 145 40% 2 12.03.2027 -
Lucas Høgsberg RC Strasbourg Aktiv 138 / 134 40% 1 12.03.2027 -
Josh Smith Accrington Stanley Aktiv 85 / 80 40% 1 11.03.2027 -
Daniel Vernattus Metalist Aktiv 81 / 73 40% 1 09.03.2027 -
Christ Inao Oulaï Fiorentina Aktiv 138 / 144 40% 1 09.03.2027 -
James Dornelly Peterborough United Aktiv 112 / 116 40% 2 04.03.2027 -
Joaquin Seys Club Brugge Aktiv 138 / 127 40% 2 03.03.2027 -
Matías Gómez Granada Aktiv 103 / 124 40% 1 03.03.2027 -
Martim Cunha Porto Aktiv 109 / 104 40% 1 02.03.2027 -
Amine Boukamir Charleroi Aktiv 90 / 112 40% 1 02.03.2027 -
Yussif Saidu Zaragoza Aktiv 115 / 126 40% 1 01.03.2027 -
Jakob Kiilerich Zulte Waregem Aktiv 126 / 126 40% 1 11.01.2027 -
Christian Tielemans KV Oostende Aktiv 149 / 148 40% 1 11.01.2027 -
Tiago Araújo KAA Gent Aktiv 121 / 128 40% 1 02.01.2027 -
Dylan Ourega Westerlo Aktiv 114 / 115 40% 1 02.01.2027 -
Amar Memić Casa Pia Aktiv 127 / 128 62% 1 01.01.2027 Befürworten
Andreas Trimmel Red Bull Salzburg Aktiv 131 / 131 60% 1 01.01.2027 Befürworten
Aurélien Scheidler Charleroi Bericht bereit 119 / 119 67% 1 01.01.2027 Befürworten
Jefry Zapata Danubio Aktiv 118 / 118 67% 1 01.01.2027 Befürworten
Matheus Alves CSKA Moscow Aktiv 113 / 128 40% 3 30.12.2026 -
Uriël Van Aalst Willem II Aktiv 104 / 124 40% 1 30.12.2026 -
Tshepang Moremi Orlando Pirates Aktiv 106 / 134 40% 3 29.12.2026 -
Senny Mayulu Paris Saint-Germain Aktiv 137 / 136 40% 1 29.12.2026 -
Derensili Sanches Fernandes Huddersfield Town Aktiv 129 / 126 40% 1 29.12.2026 -
Chris Lokesa Waasland-Beveren Aktiv 128 / 115 40% 1 28.12.2026 -
Khama Zwane Free State Stars Aktiv 70 / 93 40% 1 27.12.2026 -
Iwan Morgan Grimsby Town Aktiv 113 / 120 40% 2 26.12.2026 -
Toni Tamarit Alverca Aktiv 103 / 108 40% 1 26.12.2026 -
Tijn den Boggende Utrecht Aktiv 103 / 116 40% 3 25.12.2026 -
Daan Heymans Racing Genk Aktiv 130 / 121 40% 2 23.12.2026 -
Antoine Colassin Charleroi Aktiv 112 / 131 40% 2 23.12.2026 -
Malick Mbaye Zulte Waregem Aktiv 111 / 122 40% 1 22.12.2026 -
Anselmo García Mac Nulty Tondela Aktiv 118 / 120 40% 1 21.12.2026 -
Manu Morlanes Mallorca Aktiv 126 / 141 40% 1 21.12.2026 -
Doğucan Haspolat Westerlo Aktiv 118 / 114 40% 3 20.12.2026 -
Endrick Real Madrid Aktiv 157 / 147 40% 3 18.12.2026 -
Abdelkahar Kadri KAA Gent Aktiv 116 / 129 40% 3 16.12.2026 -
Ousseynou Seck Randers Aktiv 100 / 115 40% 2 16.12.2026 -
Sidiki Chérif Coventry City Aktiv 132 / 125 40% 1 16.12.2026 -
Jaden Philogene Ipswich Town Aktiv 134 / 140 40% 1 16.12.2026 -
Ilias Sebaoui Sint-Truiden Aktiv 133 / 135 40% 1 14.12.2026 -
Mardochée Nzita Charleroi Aktiv 107 / 117 40% 1 14.12.2026 -
Rayan Bournemouth Aktiv 129 / 146 40% 5 11.12.2026 -
Carlos Vicente Birmingham Aktiv 148 / 149 40% 2 11.12.2026 -
Tyrhys Dolan Espanyol Aktiv 131 / 133 40% 1 11.12.2026 -
Ayoub Oufkir AZ Aktiv 115 / 118 40% 4 09.12.2026 -
Tristan Degreef Anderlecht Aktiv 118 / 118 40% 2 09.12.2026 -
William Balikwisha OH Leuven Aktiv 125 / 108 40% 2 08.12.2026 -
Maksim Kireev KV Mechelen Aktiv 117 / 133 40% 1 07.12.2026 -
Ewoud Pletinckx OH Leuven Aktiv 110 / 115 40% 1 07.12.2026 -
Milan van Ewijk Mansfield Town Aktiv 128 / 129 40% 1 07.12.2026 -
Joel Orlando Almagro Aktiv 119 / 120 40% 2 04.12.2026 -
David Kalokoh Ajax Aktiv 106 / 128 40% 3 01.12.2026 -
Arkaitz Mariezkurrena Real Sociedad Aktiv 121 / 129 40% 1 30.11.2026 -
Lio Cortulua Aktiv 100 / 103 40% 2 29.11.2026 -
Mathys Tel Tottenham Aktiv 151 / 151 40% 2 27.11.2026 -
Kauã Elias Anderlecht Aktiv 120 / 143 40% 6 26.11.2026 -
Luca Maiorano Nacional Aktiv 85 / 93 40% 3 25.11.2026 -
Harrison Ofori Liberty Professionals Aktiv 113 / 84 40% 1 25.11.2026 -
Mihajlo Cvetković Racing Genk Aktiv 117 / 127 40% 1 24.11.2026 -
Moctar Diop KAA Gent Aktiv 118 / 121 40% 4 22.11.2026 -
Alagie Wally Veres Aktiv 104 / 89 40% 1 22.11.2026 -
Mathias Delorge KAA Gent Aktiv 112 / 114 40% 2 21.11.2026 -
Yoann Cathline Utrecht Aktiv 140 / 145 40% 1 21.11.2026 -
Agustín Fernández NK Zavrc Aktiv 77 / 114 40% 1 14.11.2026 -
Dom Ballard Leyton Orient Aktiv 123 / 114 40% 2 13.11.2026 -
Brian Gutiérrez Guadalajara Aktiv 117 / 120 40% 1 13.11.2026 -
Georginio Rutter Brighton Aktiv 148 / 155 40% 1 13.11.2026 -
Emile Smith Rowe Fulham Aktiv 141 / 151 40% 1 11.11.2026 -
Ruben van Bommel Ferencvaros Aktiv 131 / 146 40% 2 10.11.2026 -
Jan Virgili Club Brugge Aktiv 120 / 132 40% 1 10.11.2026 -
Vivaldo Semedo Watford Aktiv 113 / 115 40% 1 09.11.2026 -
Kevin Amaro Racing Genk Aktiv 115 / 133 40% 1 05.11.2026 -
Laurent Batshuayi KV Oostende Aktiv 145 / 147 40% 1 05.11.2026 -
Shandre Campbell KV Kortrijk Aktiv 113 / 121 40% 1 04.11.2026 -
Omar Campos Cruz Azul Aktiv 134 / 127 40% 1 03.11.2026 -
Dara O'Shea Ipswich Town Aktiv 137 / 143 40% 1 03.11.2026 -
Ndoh Wamfor Westerlo Aktiv 88 / 85 40% 1 31.10.2026 -
Hassan Beja AFC Leopards Aktiv 91 / 99 40% 2 30.10.2026 -
Ilyas Ansah Hull City Aktiv 135 / 137 40% 2 29.10.2026 -
Will Lankshear Middlesbrough Aktiv 116 / 128 40% 5 27.10.2026 -
Yannick Vanaken KV Oostende Aktiv 140 / 142 40% 1 27.10.2026 -
Kyriani Sabbe Club Brugge Aktiv 110 / 135 40% 1 24.10.2026 -
Tom Fellows Southampton Aktiv 132 / 119 40% 1 24.10.2026 -
Thomas Claes Zulte Waregem Aktiv 120 / 125 40% 1 23.10.2026 -
Nayel Mehssatou KV Kortrijk Aktiv 120 / 127 40% 1 23.10.2026 -
Mateus Mané Manchester United Aktiv 130 / 143 40% 1 20.10.2026 -
Inti López River Plate Aktiv 85 / 107 40% 1 20.10.2026 -
Rocco Vata Watford Aktiv 129 / 116 40% 1 18.10.2026 -
Justin-Noël Kalumba Mallorca Aktiv 104 / 126 40% 1 17.10.2026 -
Bill Antonio KV Mechelen Aktiv 107 / 119 40% 1 16.10.2026 -
Bart van Rooij Twente Aktiv 132 / 144 40% 1 15.10.2026 -
Hugo Vetlesen Club Brugge Aktiv 124 / 121 40% 1 13.10.2026 -
Carlos Forbs Club Brugge Aktiv 121 / 144 40% 1 13.10.2026 -
Alexei Dominguez Pachuca Aktiv 116 / 126 40% 1 11.10.2026 -
Alain Gueï Zulte Waregem Aktiv 95 / 85 40% 1 09.10.2026 -
Youssoufa Moukoko FC Copenhagen Aktiv 109 / 144 40% 2 08.10.2026 -
Matías Fernández-Pardo Newcastle United Aktiv 140 / 150 40% 2 07.10.2026 -
Róyner Benítez Aguilas Doradas Aktiv 116 / 106 40% 1 05.10.2026 -
Abdoul Diop KV Kortrijk Aktiv 78 / 101 40% 1 04.10.2026 -
Hyllarion Goore KAA Gent Aktiv 80 / 106 40% 2 24.09.2026 -
Archie Goodwin Charlotte Football Club Aktiv 106 / 127 40% 1 22.09.2026 -
Adriano Bertaccini Anderlecht Aktiv 117 / 111 40% 1 19.09.2026 -
José Paradela Cruz Azul Aktiv 137 / 118 40% 1 18.09.2026 -
Riqui Puig LA Galaxy Aktiv 115 / 135 40% 1 17.09.2026 -
Félix Lemaréchal Club Brugge Aktiv 143 / 140 40% 2 16.09.2026 -
Liel Abada Charlotte Football Club Aktiv 131 / 136 40% 1 16.09.2026 -
Ryotaro Araki Sint-Truiden Aktiv 122 / 108 40% 1 15.09.2026 -
Taiga Hata Sint-Truiden Aktiv 130 / 118 40% 1 13.09.2026 -
Jeppe Erenbjerg Racing Genk Aktiv 110 / 107 40% 1 12.09.2026 -
Jarne Steuckers Racing Genk Aktiv 121 / 121 40% 2 10.09.2026 -
Nikolas Sattlberger Racing Genk Aktiv 131 / 124 40% 1 09.09.2026 -
Efraín Álvarez Guadalajara Aktiv 137 / 123 40% 1 24.08.2026 -
Mohamed Salah Trabzonspor Aktiv 188 / 189 40% 1 24.08.2026 -
Shunsuke Saito Westerlo Aktiv 92 / 114 40% 1 01.08.2026 -